createdAt,value
2022-11-06T00:00:11.086Z,1008.5
2022-11-06T00:01:14.471Z,1008.5
2022-11-06T00:02:21.372Z,1008.6
2022-11-06T00:03:25.745Z,1008.6
2022-11-06T00:04:29.487Z,1008.5
2022-11-06T00:05:32.909Z,1008.5
2022-11-06T00:06:36.001Z,1008.5
2022-11-06T00:07:39.676Z,1008.5
2022-11-06T00:08:42.511Z,1008.5
2022-11-06T00:09:45.506Z,1008.5
2022-11-06T00:10:47.950Z,1008.5
2022-11-06T00:11:51.218Z,1008.5
2022-11-06T00:12:54.038Z,1008.5
2022-11-06T00:13:57.018Z,1008.5
2022-11-06T00:14:59.470Z,1008.5
2022-11-06T00:16:02.755Z,1008.5
2022-11-06T00:17:05.616Z,1008.5
2022-11-06T00:18:08.417Z,1008.5
2022-11-06T00:19:13.101Z,1008.5
2022-11-06T00:20:17.080Z,1008.5
2022-11-06T00:21:19.799Z,1008.5
2022-11-06T00:22:23.135Z,1008.5
2022-11-06T00:23:26.609Z,1008.5
2022-11-06T00:24:30.386Z,1008.5
2022-11-06T00:25:32.646Z,1008.5
2022-11-06T00:26:35.995Z,1008.5
2022-11-06T00:27:38.789Z,1008.5
2022-11-06T00:28:41.678Z,1008.5
2022-11-06T00:29:45.159Z,1008.5
2022-11-06T00:30:47.951Z,1008.5
2022-11-06T00:31:50.204Z,1008.5
2022-11-06T00:32:53.013Z,1008.5
2022-11-06T00:33:56.162Z,1008.4
2022-11-06T00:34:59.213Z,1008.4
2022-11-06T00:36:02.305Z,1008.4
2022-11-06T00:37:05.709Z,1008.4
2022-11-06T00:38:08.445Z,1008.4
2022-11-06T00:39:12.697Z,1008.4
2022-11-06T00:40:16.261Z,1008.4
2022-11-06T00:41:19.258Z,1008.5
2022-11-06T00:42:22.526Z,1008.5
2022-11-06T00:43:25.891Z,1008.5
2022-11-06T00:44:28.723Z,1008.5
2022-11-06T00:45:31.724Z,1008.5
2022-11-06T00:46:35.105Z,1008.5
2022-11-06T00:47:38.354Z,1008.5
2022-11-06T00:48:41.566Z,1008.5
2022-11-06T00:49:45.029Z,1008.5
2022-11-06T00:50:48.495Z,1008.5
2022-11-06T00:51:51.051Z,1008.5
2022-11-06T00:52:53.924Z,1008.5
2022-11-06T00:53:57.929Z,1008.5
2022-11-06T00:55:01.705Z,1008.5
2022-11-06T00:56:04.806Z,1008.5
2022-11-06T00:57:07.872Z,1008.4
2022-11-06T00:58:11.665Z,1008.4
2022-11-06T00:59:16.928Z,1008.4
2022-11-06T01:00:19.669Z,1008.4
2022-11-06T01:01:23.828Z,1008.4
2022-11-06T01:02:28.371Z,1008.4
2022-11-06T01:03:31.656Z,1008.4
2022-11-06T01:04:34.659Z,1008.3
2022-11-06T01:05:38.028Z,1008.3
2022-11-06T01:06:41.397Z,1008.3
2022-11-06T01:07:44.499Z,1008.3
2022-11-06T01:08:47.765Z,1008.3
2022-11-06T01:09:50.938Z,1008.3
2022-11-06T01:10:54.068Z,1008.3
2022-11-06T01:12:15.025Z,1008.3
2022-11-06T01:13:17.995Z,1008.3
2022-11-06T01:14:20.245Z,1008.3
2022-11-06T01:15:23.343Z,1008.2
2022-11-06T01:16:26.459Z,1008.2
2022-11-06T01:17:29.554Z,1008.2
2022-11-06T01:18:31.795Z,1008.2
2022-11-06T01:19:34.804Z,1008.2
2022-11-06T01:20:37.537Z,1008.1
2022-11-06T01:21:40.881Z,1008.1
2022-11-06T01:22:44.008Z,1008.1
2022-11-06T01:23:46.465Z,1008.1
2022-11-06T01:24:49.618Z,1008.1
2022-11-06T01:25:53.294Z,1008.2
2022-11-06T01:27:27.568Z,1008.1
2022-11-06T01:28:31.156Z,1008.1
2022-11-06T01:29:34.525Z,1008.2
2022-11-06T01:30:37.990Z,1008.2
2022-11-06T01:31:41.255Z,1008.1
2022-11-06T01:32:44.710Z,1008.1
2022-11-06T01:33:47.288Z,1008.1
2022-11-06T01:34:50.456Z,1008.1
2022-11-06T01:35:53.341Z,1008.1
2022-11-06T01:36:56.416Z,1008.1
2022-11-06T01:37:59.812Z,1008.1
2022-11-06T01:39:03.177Z,1008.1
2022-11-06T01:40:05.888Z,1008.1
2022-11-06T01:41:09.362Z,1008.1
2022-11-06T01:42:12.484Z,1008.1
2022-11-06T01:43:15.584Z,1008.1
2022-11-06T01:44:19.236Z,1008.1
2022-11-06T01:45:21.405Z,1008.1
2022-11-06T01:46:24.475Z,1008
2022-11-06T01:47:27.657Z,1008
2022-11-06T01:48:30.507Z,1008
2022-11-06T01:49:33.496Z,1008
2022-11-06T01:50:36.576Z,1008
2022-11-06T01:51:39.384Z,1007.9
2022-11-06T01:52:42.815Z,1007.9
2022-11-06T01:53:45.907Z,1007.9
2022-11-06T01:54:48.742Z,1007.9
2022-11-06T01:55:51.740Z,1007.9
2022-11-06T01:56:54.625Z,1008
2022-11-06T01:57:58.108Z,1008
2022-11-06T01:59:00.825Z,1007.9
2022-11-06T02:00:04.203Z,1007.9
2022-11-06T02:01:07.415Z,1007.9
2022-11-06T02:02:10.515Z,1007.9
2022-11-06T02:03:14.526Z,1007.9
2022-11-06T02:04:18.632Z,1007.8
2022-11-06T02:05:22.109Z,1007.9
2022-11-06T02:06:24.674Z,1007.8
2022-11-06T02:07:27.845Z,1007.8
2022-11-06T02:08:30.360Z,1007.8
2022-11-06T02:09:33.452Z,1007.8
2022-11-06T02:10:36.846Z,1007.9
2022-11-06T02:11:39.366Z,1007.9
2022-11-06T02:12:42.162Z,1007.9
2022-11-06T02:13:46.025Z,1007.9
2022-11-06T02:14:49.167Z,1007.9
2022-11-06T02:15:52.436Z,1007.9
2022-11-06T02:16:55.587Z,1007.8
2022-11-06T02:17:58.879Z,1007.8
2022-11-06T02:19:01.704Z,1007.8
2022-11-06T02:20:04.297Z,1007.8
2022-11-06T02:21:07.575Z,1007.8
2022-11-06T02:22:10.088Z,1007.8
2022-11-06T02:23:12.647Z,1007.7
2022-11-06T02:24:15.460Z,1007.8
2022-11-06T02:25:18.340Z,1007.7
2022-11-06T02:26:21.480Z,1007.8
2022-11-06T02:27:24.559Z,1007.8
2022-11-06T02:28:26.440Z,1007.7
2022-11-06T02:29:29.995Z,1007.8
2022-11-06T02:30:33.412Z,1007.8
2022-11-06T02:31:36.893Z,1007.7
2022-11-06T02:32:39.890Z,1007.7
2022-11-06T02:33:43.354Z,1007.7
2022-11-06T02:34:46.733Z,1007.7
2022-11-06T02:35:49.799Z,1007.7
2022-11-06T02:36:52.859Z,1007.6
2022-11-06T02:37:56.599Z,1007.6
2022-11-06T02:39:00.448Z,1007.6
2022-11-06T02:40:02.965Z,1007.6
2022-11-06T02:41:06.035Z,1007.6
2022-11-06T02:42:08.287Z,1007.6
2022-11-06T02:43:11.087Z,1007.7
2022-11-06T02:44:13.251Z,1007.6
2022-11-06T02:45:16.883Z,1007.6
2022-11-06T02:46:19.887Z,1007.6
2022-11-06T02:47:23.064Z,1007.6
2022-11-06T02:48:26.850Z,1007.6
2022-11-06T02:49:29.871Z,1007.6
2022-11-06T02:50:32.697Z,1007.5
2022-11-06T02:51:36.129Z,1007.5
2022-11-06T02:52:39.006Z,1007.6
2022-11-06T02:53:40.991Z,1007.5
2022-11-06T02:54:44.370Z,1007.5
2022-11-06T02:55:48.119Z,1007.5
2022-11-06T02:56:50.710Z,1007.6
2022-11-06T02:57:53.806Z,1007.5
2022-11-06T02:58:56.682Z,1007.5
2022-11-06T03:00:00.115Z,1007.5
2022-11-06T03:01:03.809Z,1007.5
2022-11-06T03:02:07.266Z,1007.4
2022-11-06T03:03:11.222Z,1007.4
2022-11-06T03:04:13.635Z,1007.4
2022-11-06T03:05:16.722Z,1007.4
2022-11-06T03:06:19.893Z,1007.5
2022-11-06T03:07:23.076Z,1007.3
2022-11-06T03:08:25.803Z,1007.3
2022-11-06T03:09:28.322Z,1007.3
2022-11-06T03:10:30.779Z,1007.2
2022-11-06T03:11:33.492Z,1007.3
2022-11-06T03:12:36.639Z,1007.3
2022-11-06T03:13:39.442Z,1007.3
2022-11-06T03:14:41.957Z,1007.2
2022-11-06T03:15:44.887Z,1007.2
2022-11-06T03:16:48.290Z,1007.2
2022-11-06T03:17:51.077Z,1007.2
2022-11-06T03:18:54.298Z,1007.2
2022-11-06T03:19:57.025Z,1007.2
2022-11-06T03:21:00.107Z,1007.1
2022-11-06T03:22:03.560Z,1007.2
2022-11-06T03:23:07.325Z,1007.2
2022-11-06T03:24:10.808Z,1007.1
2022-11-06T03:25:13.610Z,1007.1
2022-11-06T03:26:16.844Z,1007
2022-11-06T03:27:20.033Z,1007.1
2022-11-06T03:28:23.686Z,1007.1
2022-11-06T03:29:26.525Z,1007
2022-11-06T03:30:29.237Z,1007
2022-11-06T03:31:32.030Z,1007
2022-11-06T03:32:35.819Z,1007
2022-11-06T03:33:38.917Z,1007.1
2022-11-06T03:34:43.019Z,1007
2022-11-06T03:35:45.737Z,1007
2022-11-06T03:36:48.825Z,1007
2022-11-06T03:37:52.292Z,1007
2022-11-06T03:38:55.377Z,1007
2022-11-06T03:39:57.921Z,1007
2022-11-06T03:41:00.983Z,1007
2022-11-06T03:42:04.550Z,1007
2022-11-06T03:43:07.374Z,1007
2022-11-06T03:44:10.524Z,1007
2022-11-06T03:45:13.302Z,1007
2022-11-06T03:46:15.810Z,1007
2022-11-06T03:47:18.911Z,1007
2022-11-06T03:48:22.129Z,1007
2022-11-06T03:49:24.927Z,1007
2022-11-06T03:50:28.812Z,1007
2022-11-06T03:51:31.604Z,1006.9
2022-11-06T03:52:34.209Z,1007
2022-11-06T03:53:37.521Z,1007
2022-11-06T03:54:40.966Z,1007
2022-11-06T03:55:43.495Z,1007
2022-11-06T03:56:45.930Z,1006.9
2022-11-06T03:57:49.039Z,1006.9
2022-11-06T03:58:53.178Z,1007
2022-11-06T03:59:56.996Z,1007
2022-11-06T04:01:00.181Z,1006.9
2022-11-06T04:02:03.829Z,1006.9
2022-11-06T04:03:07.372Z,1007
2022-11-06T04:04:11.222Z,1006.9
2022-11-06T04:05:14.282Z,1006.9
2022-11-06T04:06:17.435Z,1007
2022-11-06T04:07:20.138Z,1006.9
2022-11-06T04:08:22.866Z,1006.9
2022-11-06T04:09:25.792Z,1006.9
2022-11-06T04:10:29.177Z,1006.9
2022-11-06T04:11:31.690Z,1006.9
2022-11-06T04:12:34.406Z,1006.9
2022-11-06T04:13:37.500Z,1006.8
2022-11-06T04:14:40.494Z,1006.8
2022-11-06T04:15:43.641Z,1006.8
2022-11-06T04:16:46.813Z,1006.8
2022-11-06T04:17:49.614Z,1006.8
2022-11-06T04:18:52.682Z,1006.7
2022-11-06T04:19:56.715Z,1006.8
2022-11-06T04:20:59.799Z,1006.7
2022-11-06T04:22:03.186Z,1006.7
2022-11-06T04:23:06.579Z,1006.7
2022-11-06T04:24:10.089Z,1006.7
2022-11-06T04:25:13.189Z,1006.7
2022-11-06T04:26:16.169Z,1006.7
2022-11-06T04:27:19.445Z,1006.7
2022-11-06T04:28:22.527Z,1006.7
2022-11-06T04:29:26.249Z,1006.7
2022-11-06T04:30:29.031Z,1006.8
2022-11-06T04:31:32.309Z,1006.7
2022-11-06T04:32:35.979Z,1006.7
2022-11-06T04:33:39.322Z,1006.7
2022-11-06T04:34:41.574Z,1006.7
2022-11-06T04:35:44.773Z,1006.7
2022-11-06T04:36:48.075Z,1006.7
2022-11-06T04:37:51.523Z,1006.7
2022-11-06T04:38:53.962Z,1006.7
2022-11-06T04:39:56.303Z,1006.7
2022-11-06T04:40:59.407Z,1006.7
2022-11-06T04:42:02.197Z,1006.7
2022-11-06T04:43:04.707Z,1006.7
2022-11-06T04:44:07.664Z,1006.7
2022-11-06T04:45:10.757Z,1006.7
2022-11-06T04:46:13.902Z,1006.7
2022-11-06T04:47:16.846Z,1006.7
2022-11-06T04:48:19.936Z,1006.8
2022-11-06T04:49:22.724Z,1006.8
2022-11-06T04:50:25.245Z,1006.8
2022-11-06T04:51:29.032Z,1006.8
2022-11-06T04:52:31.841Z,1006.8
2022-11-06T04:53:35.320Z,1006.8
2022-11-06T04:54:38.400Z,1006.8
2022-11-06T04:55:41.196Z,1006.8
2022-11-06T04:56:47.159Z,1006.7
2022-11-06T04:57:50.517Z,1006.7
2022-11-06T04:58:53.616Z,1006.7
2022-11-06T04:59:57.154Z,1006.6
2022-11-06T05:01:00.800Z,1006.6
2022-11-06T05:02:04.826Z,1006.6
2022-11-06T05:03:08.644Z,1006.6
2022-11-06T05:04:12.018Z,1006.5
2022-11-06T05:05:14.551Z,1006.5
2022-11-06T05:06:18.266Z,1006.5
2022-11-06T05:07:21.481Z,1006.5
2022-11-06T05:08:24.473Z,1006.6
2022-11-06T05:09:28.191Z,1006.6
2022-11-06T05:10:31.818Z,1006.7
2022-11-06T05:11:34.839Z,1006.7
2022-11-06T05:12:37.747Z,1006.6
2022-11-06T05:13:39.903Z,1006.6
2022-11-06T05:14:43.089Z,1006.7
2022-11-06T05:15:45.883Z,1006.5
2022-11-06T05:16:49.058Z,1006.6
2022-11-06T05:17:52.434Z,1006.6
2022-11-06T05:18:55.780Z,1006.5
2022-11-06T05:19:59.228Z,1006.5
2022-11-06T05:21:02.300Z,1006.5
2022-11-06T05:22:05.025Z,1006.6
2022-11-06T05:23:08.587Z,1006.5
2022-11-06T05:24:11.382Z,1006.6
2022-11-06T05:25:14.336Z,1006.6
2022-11-06T05:26:17.749Z,1006.6
2022-11-06T05:27:20.190Z,1006.6
2022-11-06T05:28:22.931Z,1006.6
2022-11-06T05:29:25.450Z,1006.6
2022-11-06T05:30:28.547Z,1006.7
2022-11-06T05:31:30.489Z,1006.6
2022-11-06T05:32:33.032Z,1006.7
2022-11-06T05:33:35.572Z,1006.7
2022-11-06T05:34:38.163Z,1006.7
2022-11-06T05:35:41.273Z,1006.6
2022-11-06T05:36:44.627Z,1006.6
2022-11-06T05:37:47.728Z,1006.6
2022-11-06T05:38:51.129Z,1006.6
2022-11-06T05:39:53.370Z,1006.5
2022-11-06T05:40:56.554Z,1006.6
2022-11-06T05:41:59.611Z,1006.6
2022-11-06T05:43:03.564Z,1006.6
2022-11-06T05:44:06.698Z,1006.6
2022-11-06T05:45:09.490Z,1006.5
2022-11-06T05:46:48.542Z,1006.5
2022-11-06T05:47:53.278Z,1006.6
2022-11-06T05:48:55.745Z,1006.5
2022-11-06T05:49:58.892Z,1006.5
2022-11-06T05:51:01.906Z,1006.5
2022-11-06T05:52:05.078Z,1006.5
2022-11-06T05:53:08.066Z,1006.5
2022-11-06T05:54:11.841Z,1006.5
2022-11-06T05:55:15.936Z,1006.6
2022-11-06T05:56:18.756Z,1006.6
2022-11-06T05:57:21.824Z,1006.5
2022-11-06T05:58:25.214Z,1006.4
2022-11-06T05:59:27.959Z,1006.4
2022-11-06T06:00:31.108Z,1006.5
2022-11-06T06:01:34.148Z,1006.5
2022-11-06T06:02:38.552Z,1006.4
2022-11-06T06:03:42.608Z,1006.5
2022-11-06T06:04:45.845Z,1006.5
2022-11-06T06:05:49.300Z,1006.5
2022-11-06T06:06:51.911Z,1006.5
2022-11-06T06:07:55.095Z,1006.4
2022-11-06T06:08:58.140Z,1006.5
2022-11-06T06:10:01.369Z,1006.5
2022-11-06T06:11:04.428Z,1006.5
2022-11-06T06:12:08.282Z,1006.5
2022-11-06T06:13:10.714Z,1006.5
2022-11-06T06:14:13.877Z,1006.5
2022-11-06T06:15:16.349Z,1006.5
2022-11-06T06:16:18.930Z,1006.5
2022-11-06T06:17:21.778Z,1006.5
2022-11-06T06:18:25.160Z,1006.4
2022-11-06T06:19:27.709Z,1006.5
2022-11-06T06:20:30.155Z,1006.5
2022-11-06T06:21:33.509Z,1006.4
2022-11-06T06:22:36.575Z,1006.5
2022-11-06T06:23:40.030Z,1006.5
2022-11-06T06:24:43.435Z,1006.6
2022-11-06T06:25:47.719Z,1006.5
2022-11-06T06:26:50.542Z,1006.5
2022-11-06T06:27:54.049Z,1006.6
2022-11-06T06:28:57.120Z,1006.5
2022-11-06T06:30:00.100Z,1006.6
2022-11-06T06:31:03.504Z,1006.5
2022-11-06T06:32:06.622Z,1006.5
2022-11-06T06:33:09.769Z,1006.6
2022-11-06T06:34:12.658Z,1006.6
2022-11-06T06:35:15.749Z,1006.6
2022-11-06T06:36:18.191Z,1006.6
2022-11-06T06:37:21.422Z,1006.5
2022-11-06T06:38:24.715Z,1006.6
2022-11-06T06:39:28.058Z,1006.5
2022-11-06T06:40:30.666Z,1006.5
2022-11-06T06:41:34.571Z,1006.6
2022-11-06T06:42:37.451Z,1006.6
2022-11-06T06:43:41.100Z,1006.6
2022-11-06T06:44:43.770Z,1006.6
2022-11-06T06:45:47.137Z,1006.6
2022-11-06T06:46:49.819Z,1006.6
2022-11-06T06:47:52.531Z,1006.6
2022-11-06T06:48:55.635Z,1006.7
2022-11-06T06:49:58.094Z,1006.6
2022-11-06T06:51:01.565Z,1006.7
2022-11-06T06:52:04.995Z,1006.7
2022-11-06T06:53:07.990Z,1006.7
2022-11-06T06:54:11.473Z,1006.7
2022-11-06T06:55:14.277Z,1006.7
2022-11-06T06:56:16.823Z,1006.7
2022-11-06T06:57:19.758Z,1006.7
2022-11-06T06:58:24.010Z,1006.7
2022-11-06T06:59:28.572Z,1006.7
2022-11-06T07:00:31.374Z,1006.6
2022-11-06T07:01:35.227Z,1006.7
2022-11-06T07:02:38.391Z,1006.7
2022-11-06T07:03:41.378Z,1006.7
2022-11-06T07:04:44.636Z,1006.7
2022-11-06T07:05:47.439Z,1006.7
2022-11-06T07:06:50.683Z,1006.7
2022-11-06T07:07:53.388Z,1006.8
2022-11-06T07:08:56.473Z,1006.8
2022-11-06T07:09:59.277Z,1006.8
2022-11-06T07:11:02.724Z,1006.8
2022-11-06T07:12:05.867Z,1006.7
2022-11-06T07:13:08.990Z,1006.6
2022-11-06T07:14:12.475Z,1006.7
2022-11-06T07:15:15.160Z,1006.7
2022-11-06T07:16:18.508Z,1006.7
2022-11-06T07:17:21.903Z,1006.7
2022-11-06T07:18:24.995Z,1006.7
2022-11-06T07:19:27.714Z,1006.6
2022-11-06T07:20:31.143Z,1006.7
2022-11-06T07:21:34.299Z,1006.7
2022-11-06T07:22:38.289Z,1006.8
2022-11-06T07:23:41.390Z,1006.7
2022-11-06T07:24:44.192Z,1006.7
2022-11-06T07:25:47.565Z,1006.7
2022-11-06T07:26:50.998Z,1006.7
2022-11-06T07:28:02.491Z,1006.7
2022-11-06T07:29:06.803Z,1006.7
2022-11-06T07:30:09.024Z,1006.7
2022-11-06T07:31:12.377Z,1006.7
2022-11-06T07:32:15.682Z,1006.7
2022-11-06T07:33:18.810Z,1006.8
2022-11-06T07:34:21.836Z,1006.7
2022-11-06T07:35:24.634Z,1006.7
2022-11-06T07:36:27.605Z,1006.7
2022-11-06T07:37:30.331Z,1006.7
2022-11-06T07:38:34.216Z,1006.7
2022-11-06T07:39:37.376Z,1006.6
2022-11-06T07:40:39.815Z,1006.6
2022-11-06T07:41:42.879Z,1006.6
2022-11-06T07:42:45.765Z,1006.6
2022-11-06T07:43:49.189Z,1006.6
2022-11-06T07:44:52.664Z,1006.7
2022-11-06T07:45:55.935Z,1006.6
2022-11-06T07:46:59.725Z,1006.6
2022-11-06T07:48:02.593Z,1006.6
2022-11-06T07:49:05.984Z,1006.5
2022-11-06T07:50:08.553Z,1006.5
2022-11-06T07:51:11.345Z,1006.5
2022-11-06T07:52:14.593Z,1006.5
2022-11-06T07:53:17.860Z,1006.6
2022-11-06T07:54:21.031Z,1006.6
2022-11-06T07:55:24.749Z,1006.6
2022-11-06T07:56:28.109Z,1006.5
2022-11-06T07:57:31.195Z,1006.6
2022-11-06T07:58:34.266Z,1006.6
2022-11-06T07:59:37.727Z,1006.6
2022-11-06T08:00:40.968Z,1006.5
2022-11-06T08:01:44.895Z,1006.6
2022-11-06T08:02:49.504Z,1006.6
2022-11-06T08:03:52.316Z,1006.5
2022-11-06T08:04:55.594Z,1006.5
2022-11-06T08:05:58.714Z,1006.5
2022-11-06T08:07:01.807Z,1006.5
2022-11-06T08:08:04.249Z,1006.5
2022-11-06T08:09:07.053Z,1006.5
2022-11-06T08:10:09.857Z,1006.5
2022-11-06T08:11:12.769Z,1006.5
2022-11-06T08:12:15.364Z,1006.5
2022-11-06T08:13:18.194Z,1006.5
2022-11-06T08:14:21.002Z,1006.4
2022-11-06T08:15:24.730Z,1006.4
2022-11-06T08:16:28.798Z,1006.4
2022-11-06T08:17:32.141Z,1006.5
2022-11-06T08:18:35.973Z,1006.4
2022-11-06T08:19:38.684Z,1006.5
2022-11-06T08:20:42.125Z,1006.4
2022-11-06T08:21:44.946Z,1006.4
2022-11-06T08:22:47.661Z,1006.4
2022-11-06T08:23:50.831Z,1006.4
2022-11-06T08:24:53.694Z,1006.4
2022-11-06T08:25:56.702Z,1006.4
2022-11-06T08:27:00.168Z,1006.4
2022-11-06T08:28:02.954Z,1006.3
2022-11-06T08:29:05.206Z,1006.3
2022-11-06T08:30:07.920Z,1006.4
2022-11-06T08:31:11.188Z,1006.3
2022-11-06T08:32:14.311Z,1006.3
2022-11-06T08:33:17.490Z,1006.3
2022-11-06T08:34:20.676Z,1006.4
2022-11-06T08:35:23.200Z,1006.3
2022-11-06T08:36:26.019Z,1006.3
2022-11-06T08:37:28.597Z,1006.4
2022-11-06T08:38:31.990Z,1006.3
2022-11-06T08:39:34.837Z,1006.3
2022-11-06T08:40:38.639Z,1006.3
2022-11-06T08:41:41.468Z,1006.3
2022-11-06T08:42:44.065Z,1006.3
2022-11-06T08:43:47.219Z,1006.3
2022-11-06T08:44:50.594Z,1006.3
2022-11-06T08:45:53.665Z,1006.3
2022-11-06T08:46:56.759Z,1006.3
2022-11-06T08:48:00.592Z,1006.2
2022-11-06T08:49:03.785Z,1006.3
2022-11-06T08:50:06.348Z,1006.3
2022-11-06T08:51:09.147Z,1006.3
2022-11-06T08:52:12.638Z,1006.3
2022-11-06T08:53:16.906Z,1006.2
2022-11-06T08:54:21.816Z,1006.3
2022-11-06T08:55:25.590Z,1006.2
2022-11-06T08:56:28.664Z,1006.2
2022-11-06T08:57:31.200Z,1006.1
2022-11-06T08:58:34.822Z,1006.2
2022-11-06T08:59:37.893Z,1006.3
2022-11-06T09:00:40.943Z,1006.2
2022-11-06T09:01:44.567Z,1006.2
2022-11-06T09:02:48.394Z,1006.2
2022-11-06T09:03:51.044Z,1006.2
2022-11-06T09:04:54.859Z,1006.3
2022-11-06T09:05:58.031Z,1006.2
2022-11-06T09:07:00.813Z,1006.2
2022-11-06T09:08:03.363Z,1006.3
2022-11-06T09:09:07.105Z,1006.2
2022-11-06T09:10:09.432Z,1006.2
2022-11-06T09:11:12.612Z,1006.3
2022-11-06T09:12:15.506Z,1006.3
2022-11-06T09:13:18.909Z,1006.2
2022-11-06T09:14:22.273Z,1006.2
2022-11-06T09:15:25.412Z,1006.2
2022-11-06T09:16:28.287Z,1006.2
2022-11-06T09:17:31.562Z,1006.2
2022-11-06T09:18:34.835Z,1006.2
2022-11-06T09:19:38.692Z,1006.2
2022-11-06T09:20:42.064Z,1006.2
2022-11-06T09:21:54.804Z,1006.2
2022-11-06T09:22:58.102Z,1006.2
2022-11-06T09:24:00.973Z,1006.2
2022-11-06T09:25:05.142Z,1006.1
2022-11-06T09:26:07.295Z,1006.2
2022-11-06T09:27:09.650Z,1006.1
2022-11-06T09:28:12.804Z,1006.2
2022-11-06T09:29:16.168Z,1006.1
2022-11-06T09:30:19.329Z,1006.2
2022-11-06T09:31:22.817Z,1006.1
2022-11-06T09:32:25.805Z,1006.1
2022-11-06T09:33:28.339Z,1006.1
2022-11-06T09:34:31.766Z,1006.1
2022-11-06T09:35:35.526Z,1006
2022-11-06T09:36:38.119Z,1006
2022-11-06T09:37:41.645Z,1006.1
2022-11-06T09:38:44.740Z,1006.1
2022-11-06T09:39:47.978Z,1006
2022-11-06T09:40:51.278Z,1006.1
2022-11-06T09:41:54.102Z,1006.1
2022-11-06T09:42:57.819Z,1006
2022-11-06T09:44:07.638Z,1006.1
2022-11-06T09:45:10.596Z,1006.1
2022-11-06T09:46:12.837Z,1006.1
2022-11-06T09:47:15.989Z,1006
2022-11-06T09:48:18.523Z,1006
2022-11-06T09:49:20.777Z,1006.2
2022-11-06T09:50:23.489Z,1006.1
2022-11-06T09:51:27.454Z,1006
2022-11-06T09:52:32.127Z,1006
2022-11-06T09:53:37.762Z,1006
2022-11-06T09:54:41.429Z,1006.1
2022-11-06T09:55:45.396Z,1006
2022-11-06T09:56:49.497Z,1006
2022-11-06T09:57:52.964Z,1006.2
2022-11-06T09:58:55.471Z,1005.9
2022-11-06T09:59:58.276Z,1006
2022-11-06T10:01:01.491Z,1005.9
2022-11-06T10:02:05.619Z,1005.9
2022-11-06T10:03:09.033Z,1005.9
2022-11-06T10:04:12.338Z,1005.9
2022-11-06T10:05:15.414Z,1005.9
2022-11-06T10:06:18.410Z,1005.9
2022-11-06T10:07:21.621Z,1005.9
2022-11-06T10:08:24.685Z,1005.9
2022-11-06T10:09:27.847Z,1005.9
2022-11-06T10:10:31.191Z,1005.9
2022-11-06T10:11:34.227Z,1005.9
2022-11-06T10:12:37.045Z,1005.9
2022-11-06T10:13:40.028Z,1005.9
2022-11-06T10:14:43.408Z,1005.9
2022-11-06T10:15:46.127Z,1006
2022-11-06T10:16:49.040Z,1006
2022-11-06T10:17:51.473Z,1005.9
2022-11-06T10:18:54.845Z,1005.8
2022-11-06T10:19:57.870Z,1005.9
2022-11-06T10:21:01.030Z,1005.8
2022-11-06T10:22:03.341Z,1005.8
2022-11-06T10:23:06.848Z,1005.9
2022-11-06T10:24:09.634Z,1005.9
2022-11-06T10:25:13.295Z,1005.8
2022-11-06T10:26:15.998Z,1005.9
2022-11-06T10:27:19.451Z,1005.9
2022-11-06T10:28:22.260Z,1005.9
2022-11-06T10:29:25.246Z,1005.9
2022-11-06T10:30:28.321Z,1005.9
2022-11-06T10:31:31.495Z,1005.9
2022-11-06T10:32:34.514Z,1005.9
2022-11-06T10:33:37.036Z,1005.8
2022-11-06T10:34:40.740Z,1005.8
2022-11-06T10:35:43.777Z,1005.8
2022-11-06T10:36:50.652Z,1005.8
2022-11-06T10:37:53.645Z,1005.8
2022-11-06T10:38:56.786Z,1005.9
2022-11-06T10:40:00.446Z,1005.9
2022-11-06T10:41:03.913Z,1005.8
2022-11-06T10:42:07.051Z,1005.8
2022-11-06T10:43:09.587Z,1005.7
2022-11-06T10:44:12.948Z,1005.7
2022-11-06T10:45:15.824Z,1005.7
2022-11-06T10:46:19.204Z,1005.7
2022-11-06T10:47:21.950Z,1005.6
2022-11-06T10:48:33.310Z,1005.7
2022-11-06T10:49:44.064Z,1005.7
2022-11-06T10:50:47.175Z,1005.6
2022-11-06T10:51:50.345Z,1005.5
2022-11-06T10:52:53.689Z,1005.5
2022-11-06T10:53:56.823Z,1005.6
2022-11-06T10:55:00.399Z,1005.6
2022-11-06T10:56:11.099Z,1005.7
2022-11-06T10:57:23.903Z,1005.6
2022-11-06T10:58:26.731Z,1005.6
2022-11-06T10:59:30.030Z,1005.6
2022-11-06T11:00:33.548Z,1005.5
2022-11-06T11:01:37.290Z,1005.6
2022-11-06T11:02:41.045Z,1005.6
2022-11-06T11:03:44.711Z,1005.6
2022-11-06T11:04:48.085Z,1005.6
2022-11-06T11:06:00.237Z,1005.6
2022-11-06T11:07:02.223Z,1005.6
2022-11-06T11:08:05.295Z,1005.5
2022-11-06T11:09:08.445Z,1005.5
2022-11-06T11:10:11.931Z,1005.5
2022-11-06T11:11:15.375Z,1005.5
2022-11-06T11:12:18.623Z,1005.5
2022-11-06T11:13:21.782Z,1005.5
2022-11-06T11:14:25.189Z,1005.5
2022-11-06T11:15:28.354Z,1005.5
2022-11-06T11:16:31.997Z,1005.5
2022-11-06T11:17:35.152Z,1005.4
2022-11-06T11:18:38.496Z,1005.4
2022-11-06T11:19:41.233Z,1005.4
2022-11-06T11:20:44.100Z,1005.3
2022-11-06T11:21:47.773Z,1005.3
2022-11-06T11:22:50.798Z,1005.3
2022-11-06T11:23:54.067Z,1005.2
2022-11-06T11:24:56.872Z,1005.2
2022-11-06T11:26:00.692Z,1005.2
2022-11-06T11:27:04.455Z,1005.1
2022-11-06T11:28:07.249Z,1005.1
2022-11-06T11:29:11.286Z,1005
2022-11-06T11:30:14.417Z,1005.1
2022-11-06T11:31:17.611Z,1005.1
2022-11-06T11:32:21.048Z,1005.1
2022-11-06T11:33:23.647Z,1005
2022-11-06T11:34:26.525Z,1005.1
2022-11-06T11:35:29.140Z,1005
2022-11-06T11:36:32.214Z,1005
2022-11-06T11:37:35.228Z,1004.9
2022-11-06T11:38:37.688Z,1004.9
2022-11-06T11:39:41.029Z,1004.9
2022-11-06T11:40:44.179Z,1004.9
2022-11-06T11:41:47.340Z,1004.8
2022-11-06T11:42:50.332Z,1004.8
2022-11-06T11:43:53.861Z,1004.8
2022-11-06T11:44:57.104Z,1004.8
2022-11-06T11:46:00.122Z,1004.8
2022-11-06T11:47:09.130Z,1004.8
2022-11-06T11:48:12.403Z,1004.7
2022-11-06T11:49:18.083Z,1004.7
2022-11-06T11:50:20.683Z,1004.8
2022-11-06T11:51:23.594Z,1004.7
2022-11-06T11:52:26.320Z,1004.8
2022-11-06T11:53:29.145Z,1004.8
2022-11-06T11:54:32.494Z,1004.8
2022-11-06T11:55:35.222Z,1004.7
2022-11-06T11:57:06.520Z,1004.7
2022-11-06T11:58:11.309Z,1004.7
2022-11-06T11:59:15.031Z,1004.7
2022-11-06T12:00:18.299Z,1004.7
2022-11-06T12:01:21.871Z,1004.7
2022-11-06T12:02:28.530Z,1004.6
2022-11-06T12:03:32.838Z,1004.6
2022-11-06T12:04:35.102Z,1004.6
2022-11-06T12:05:38.177Z,1004.6
2022-11-06T12:06:40.997Z,1004.6
2022-11-06T12:07:47.048Z,1004.5
2022-11-06T12:08:49.870Z,1004.6
2022-11-06T12:09:53.017Z,1004.6
2022-11-06T12:10:55.755Z,1004.7
2022-11-06T12:11:58.920Z,1004.6
2022-11-06T12:13:01.437Z,1004.6
2022-11-06T12:14:04.915Z,1004.6
2022-11-06T12:15:07.718Z,1004.6
2022-11-06T12:16:11.829Z,1004.6
2022-11-06T12:17:14.568Z,1004.7
2022-11-06T12:18:17.918Z,1004.7
2022-11-06T12:19:20.646Z,1004.7
2022-11-06T12:20:23.990Z,1004.7
2022-11-06T12:21:26.789Z,1004.8
2022-11-06T12:22:29.807Z,1004.7
2022-11-06T12:23:32.946Z,1004.7
2022-11-06T12:24:36.180Z,1004.7
2022-11-06T12:25:39.003Z,1004.8
2022-11-06T12:26:41.557Z,1004.8
2022-11-06T12:27:43.800Z,1004.8
2022-11-06T12:28:46.411Z,1004.8
2022-11-06T12:29:49.809Z,1004.8
2022-11-06T12:30:53.256Z,1004.8
2022-11-06T12:31:56.970Z,1004.8
2022-11-06T12:33:00.349Z,1004.7
2022-11-06T12:34:10.919Z,1004.7
2022-11-06T12:35:20.515Z,1004.7
2022-11-06T12:36:23.043Z,1004.6
2022-11-06T12:37:25.766Z,1004.7
2022-11-06T12:38:28.240Z,1004.7
2022-11-06T12:39:31.386Z,1004.6
2022-11-06T12:40:33.841Z,1004.6
2022-11-06T12:41:36.904Z,1004.5
2022-11-06T12:42:40.331Z,1004.5
2022-11-06T12:43:43.768Z,1004.5
2022-11-06T12:44:46.922Z,1004.5
2022-11-06T12:45:51.053Z,1004.5
2022-11-06T12:46:54.758Z,1004.6
2022-11-06T12:47:59.220Z,1004.5
2022-11-06T12:49:01.958Z,1004.5
2022-11-06T12:50:05.199Z,1004.5
2022-11-06T12:51:08.264Z,1004.5
2022-11-06T12:52:11.412Z,1004.5
2022-11-06T12:53:14.602Z,1004.5
2022-11-06T12:54:18.096Z,1004.5
2022-11-06T12:55:21.459Z,1004.5
2022-11-06T12:56:24.349Z,1004.6
2022-11-06T12:57:27.136Z,1004.5
2022-11-06T12:58:30.231Z,1004.5
2022-11-06T12:59:33.418Z,1004.5
2022-11-06T13:00:36.781Z,1004.5
2022-11-06T13:01:40.734Z,1004.5
2022-11-06T13:02:44.501Z,1004.5
2022-11-06T13:03:48.464Z,1004.4
2022-11-06T13:04:51.733Z,1004.4
2022-11-06T13:05:55.201Z,1004.4
2022-11-06T13:06:58.001Z,1004.4
2022-11-06T13:08:00.796Z,1004.4
2022-11-06T13:09:04.149Z,1004.4
2022-11-06T13:10:07.406Z,1004.4
2022-11-06T13:11:10.552Z,1004.3
2022-11-06T13:12:14.087Z,1004.3
2022-11-06T13:13:16.880Z,1004.3
2022-11-06T13:14:19.618Z,1004.3